sensor_id;sensor_type;location;lat;lon;timestamp;temperature;humidity
8105;DHT22;4095;48.942;9.104;2023-02-15T00:01:08;4.40;99.30
8105;DHT22;4095;48.942;9.104;2023-02-15T00:03:34;4.40;99.30
8105;DHT22;4095;48.942;9.104;2023-02-15T00:06:00;4.50;99.40
8105;DHT22;4095;48.942;9.104;2023-02-15T00:08:26;4.50;99.50
8105;DHT22;4095;48.942;9.104;2023-02-15T00:10:51;4.50;99.60
8105;DHT22;4095;48.942;9.104;2023-02-15T00:13:17;4.50;99.60
8105;DHT22;4095;48.942;9.104;2023-02-15T00:15:43;4.50;99.50
8105;DHT22;4095;48.942;9.104;2023-02-15T00:18:08;4.40;99.60
8105;DHT22;4095;48.942;9.104;2023-02-15T00:20:34;4.40;99.60
8105;DHT22;4095;48.942;9.104;2023-02-15T00:23:00;4.40;99.80
8105;DHT22;4095;48.942;9.104;2023-02-15T00:25:25;4.40;99.90
8105;DHT22;4095;48.942;9.104;2023-02-15T00:27:51;4.40;99.90
8105;DHT22;4095;48.942;9.104;2023-02-15T00:30:16;4.40;99.90
8105;DHT22;4095;48.942;9.104;2023-02-15T00:32:42;4.40;99.90
8105;DHT22;4095;48.942;9.104;2023-02-15T00:35:07;4.40;99.90
8105;DHT22;4095;48.942;9.104;2023-02-15T00:37:34;4.40;99.90
8105;DHT22;4095;48.942;9.104;2023-02-15T00:40:00;4.40;99.90
8105;DHT22;4095;48.942;9.104;2023-02-15T00:42:25;4.40;99.90
8105;DHT22;4095;48.942;9.104;2023-02-15T00:44:51;4.40;99.90
8105;DHT22;4095;48.942;9.104;2023-02-15T00:47:17;4.40;99.90
8105;DHT22;4095;48.942;9.104;2023-02-15T00:49:42;4.40;99.90
8105;DHT22;4095;48.942;9.104;2023-02-15T00:52:08;4.40;99.90
8105;DHT22;4095;48.942;9.104;2023-02-15T00:54:33;4.30;99.90
8105;DHT22;4095;48.942;9.104;2023-02-15T00:57:00;4.30;99.90
8105;DHT22;4095;48.942;9.104;2023-02-15T00:59:26;4.30;99.90
8105;DHT22;4095;48.942;9.104;2023-02-15T01:01:51;4.30;99.90
8105;DHT22;4095;48.942;9.104;2023-02-15T01:04:17;4.20;99.90
8105;DHT22;4095;48.942;9.104;2023-02-15T01:06:43;4.20;99.90
8105;DHT22;4095;48.942;9.104;2023-02-15T01:09:08;4.20;99.90
8105;DHT22;4095;48.942;9.104;2023-02-15T01:11:34;4.10;99.90
8105;DHT22;4095;48.942;9.104;2023-02-15T01:13:59;4.10;99.90
8105;DHT22;4095;48.942;9.104;2023-02-15T01:16:27;4.10;99.90
8105;DHT22;4095;48.942;9.104;2023-02-15T01:18:53;4.10;99.90
8105;DHT22;4095;48.942;9.104;2023-02-15T01:21:23;4.20;99.90
8105;DHT22;4095;48.942;9.104;2023-02-15T01:23:49;4.20;99.90
8105;DHT22;4095;48.942;9.104;2023-02-15T01:26:15;4.20;99.90
8105;DHT22;4095;48.942;9.104;2023-02-15T01:28:41;4.20;99.90
8105;DHT22;4095;48.942;9.104;2023-02-15T01:31:09;4.20;99.90
8105;DHT22;4095;48.942;9.104;2023-02-15T01:33:36;4.20;99.90
8105;DHT22;4095;48.942;9.104;2023-02-15T01:36:02;4.20;99.90
8105;DHT22;4095;48.942;9.104;2023-02-15T01:38:28;4.20;99.90
8105;DHT22;4095;48.942;9.104;2023-02-15T01:40:54;4.30;99.90
8105;DHT22;4095;48.942;9.104;2023-02-15T01:43:41;4.30;99.90
8105;DHT22;4095;48.942;9.104;2023-02-15T01:46:08;4.30;99.90
8105;DHT22;4095;48.942;9.104;2023-02-15T01:48:35;4.30;99.90
8105;DHT22;4095;48.942;9.104;2023-02-15T01:51:06;4.30;99.90
8105;DHT22;4095;48.942;9.104;2023-02-15T01:53:35;4.30;99.90
8105;DHT22;4095;48.942;9.104;2023-02-15T01:56:19;4.30;99.90
8105;DHT22;4095;48.942;9.104;2023-02-15T01:58:45;4.30;99.90
8105;DHT22;4095;48.942;9.104;2023-02-15T02:01:12;4.20;99.90
8105;DHT22;4095;48.942;9.104;2023-02-15T02:06:19;4.20;99.90
8105;DHT22;4095;48.942;9.104;2023-02-15T02:08:45;4.20;99.90
8105;DHT22;4095;48.942;9.104;2023-02-15T02:11:13;4.20;99.90
8105;DHT22;4095;48.942;9.104;2023-02-15T02:13:40;4.20;99.90
8105;DHT22;4095;48.942;9.104;2023-02-15T02:16:22;4.20;99.90
8105;DHT22;4095;48.942;9.104;2023-02-15T02:27:33;4.10;99.90
8105;DHT22;4095;48.942;9.104;2023-02-15T02:30:26;4.10;99.90
8105;DHT22;4095;48.942;9.104;2023-02-15T02:35:41;4.10;99.90
8105;DHT22;4095;48.942;9.104;2023-02-15T02:38:23;4.00;99.90
8105;DHT22;4095;48.942;9.104;2023-02-15T02:46:22;4.00;99.90
8105;DHT22;4095;48.942;9.104;2023-02-15T02:48:49;3.90;99.90
8105;DHT22;4095;48.942;9.104;2023-02-15T02:51:15;4.00;99.90
8105;DHT22;4095;48.942;9.104;2023-02-15T02:53:50;4.00;99.90
8105;DHT22;4095;48.942;9.104;2023-02-15T02:56:28;4.10;99.90
8105;DHT22;4095;48.942;9.104;2023-02-15T02:59:12;4.10;99.90
8105;DHT22;4095;48.942;9.104;2023-02-15T03:04:29;3.90;99.90
8105;DHT22;4095;48.942;9.104;2023-02-15T03:07:20;3.80;99.90
8105;DHT22;4095;48.942;9.104;2023-02-15T03:09:51;3.80;99.90
8105;DHT22;4095;48.942;9.104;2023-02-15T03:12:21;3.80;99.90
8105;DHT22;4095;48.942;9.104;2023-02-15T03:14:52;3.80;99.90
8105;DHT22;4095;48.942;9.104;2023-02-15T03:17:20;3.80;99.90
8105;DHT22;4095;48.942;9.104;2023-02-15T03:19:48;3.80;99.90
8105;DHT22;4095;48.942;9.104;2023-02-15T03:22:24;3.70;99.90
8105;DHT22;4095;48.942;9.104;2023-02-15T03:27:42;3.60;99.90
8105;DHT22;4095;48.942;9.104;2023-02-15T03:30:10;3.70;99.90
8105;DHT22;4095;48.942;9.104;2023-02-15T03:32:37;3.70;99.90
8105;DHT22;4095;48.942;9.104;2023-02-15T03:35:05;3.60;99.90
8105;DHT22;4095;48.942;9.104;2023-02-15T03:37:48;3.60;99.90
8105;DHT22;4095;48.942;9.104;2023-02-15T03:40:31;3.60;99.90
8105;DHT22;4095;48.942;9.104;2023-02-15T03:43:24;3.60;99.90
8105;DHT22;4095;48.942;9.104;2023-02-15T03:45:57;3.70;99.90
8105;DHT22;4095;48.942;9.104;2023-02-15T03:48:34;3.60;99.90
8105;DHT22;4095;48.942;9.104;2023-02-15T03:51:09;3.70;99.90
8105;DHT22;4095;48.942;9.104;2023-02-15T03:53:56;3.70;99.90
8105;DHT22;4095;48.942;9.104;2023-02-15T03:56:22;3.70;99.90
8105;DHT22;4095;48.942;9.104;2023-02-15T03:58:48;3.70;99.90
8105;DHT22;4095;48.942;9.104;2023-02-15T04:01:37;3.80;99.90
8105;DHT22;4095;48.942;9.104;2023-02-15T04:04:28;3.70;99.90
8105;DHT22;4095;48.942;9.104;2023-02-15T04:06:56;3.60;99.90
8105;DHT22;4095;48.942;9.104;2023-02-15T04:09:23;3.70;99.90
8105;DHT22;4095;48.942;9.104;2023-02-15T04:12:07;3.70;99.90
8105;DHT22;4095;48.942;9.104;2023-02-15T04:14:33;3.80;99.90
8105;DHT22;4095;48.942;9.104;2023-02-15T04:17:17;3.80;99.90
8105;DHT22;4095;48.942;9.104;2023-02-15T04:19:42;3.70;99.90
8105;DHT22;4095;48.942;9.104;2023-02-15T04:22:26;3.70;99.90
8105;DHT22;4095;48.942;9.104;2023-02-15T04:25:10;3.80;99.90
8105;DHT22;4095;48.942;9.104;2023-02-15T04:27:41;3.70;99.90
8105;DHT22;4095;48.942;9.104;2023-02-15T04:30:07;3.70;99.90
8105;DHT22;4095;48.942;9.104;2023-02-15T04:32:34;3.70;99.90
8105;DHT22;4095;48.942;9.104;2023-02-15T04:35:00;3.70;99.90
8105;DHT22;4095;48.942;9.104;2023-02-15T04:37:25;3.70;99.90
8105;DHT22;4095;48.942;9.104;2023-02-15T04:39:51;3.70;99.90
8105;DHT22;4095;48.942;9.104;2023-02-15T04:42:17;3.70;99.90
8105;DHT22;4095;48.942;9.104;2023-02-15T04:44:42;3.80;99.90
8105;DHT22;4095;48.942;9.104;2023-02-15T04:47:08;3.70;99.90
8105;DHT22;4095;48.942;9.104;2023-02-15T04:49:34;3.70;99.90
8105;DHT22;4095;48.942;9.104;2023-02-15T04:51:59;3.80;99.90
8105;DHT22;4095;48.942;9.104;2023-02-15T04:54:25;3.80;99.90
8105;DHT22;4095;48.942;9.104;2023-02-15T04:56:51;3.80;99.90
8105;DHT22;4095;48.942;9.104;2023-02-15T04:59:16;3.80;99.90
8105;DHT22;4095;48.942;9.104;2023-02-15T05:01:42;3.80;99.90
8105;DHT22;4095;48.942;9.104;2023-02-15T05:04:08;3.90;99.90
8105;DHT22;4095;48.942;9.104;2023-02-15T05:06:33;3.90;99.90
8105;DHT22;4095;48.942;9.104;2023-02-15T05:08:59;3.90;99.90
8105;DHT22;4095;48.942;9.104;2023-02-15T05:11:25;3.90;99.90
8105;DHT22;4095;48.942;9.104;2023-02-15T05:13:51;4.00;99.90
8105;DHT22;4095;48.942;9.104;2023-02-15T05:16:16;3.90;99.90
8105;DHT22;4095;48.942;9.104;2023-02-15T05:18:42;3.90;99.90
8105;DHT22;4095;48.942;9.104;2023-02-15T05:21:08;3.90;99.90
8105;DHT22;4095;48.942;9.104;2023-02-15T05:23:34;3.90;99.90
8105;DHT22;4095;48.942;9.104;2023-02-15T05:25:59;3.90;99.90
8105;DHT22;4095;48.942;9.104;2023-02-15T05:28:43;3.80;99.90
8105;DHT22;4095;48.942;9.104;2023-02-15T05:31:14;3.90;99.90
8105;DHT22;4095;48.942;9.104;2023-02-15T05:33:41;3.80;99.90
8105;DHT22;4095;48.942;9.104;2023-02-15T05:36:07;3.80;99.90
8105;DHT22;4095;48.942;9.104;2023-02-15T05:38:33;3.80;99.90
8105;DHT22;4095;48.942;9.104;2023-02-15T05:40:58;3.80;99.90
8105;DHT22;4095;48.942;9.104;2023-02-15T05:43:25;3.90;99.90
8105;DHT22;4095;48.942;9.104;2023-02-15T05:45:52;3.90;99.90
8105;DHT22;4095;48.942;9.104;2023-02-15T05:48:20;3.90;99.90
8105;DHT22;4095;48.942;9.104;2023-02-15T05:50:46;3.90;99.90
8105;DHT22;4095;48.942;9.104;2023-02-15T05:53:11;3.80;99.90
8105;DHT22;4095;48.942;9.104;2023-02-15T05:55:40;3.70;99.90
8105;DHT22;4095;48.942;9.104;2023-02-15T05:58:07;3.80;99.90
8105;DHT22;4095;48.942;9.104;2023-02-15T06:00:34;3.70;99.90
8105;DHT22;4095;48.942;9.104;2023-02-15T06:02:59;3.70;99.90
8105;DHT22;4095;48.942;9.104;2023-02-15T06:05:25;3.60;99.90
8105;DHT22;4095;48.942;9.104;2023-02-15T06:07:51;3.60;99.90
8105;DHT22;4095;48.942;9.104;2023-02-15T06:10:16;3.60;99.90
8105;DHT22;4095;48.942;9.104;2023-02-15T06:12:43;3.60;99.90
8105;DHT22;4095;48.942;9.104;2023-02-15T06:15:09;3.60;99.90
8105;DHT22;4095;48.942;9.104;2023-02-15T06:17:35;3.50;99.90
8105;DHT22;4095;48.942;9.104;2023-02-15T06:20:00;3.50;99.90
8105;DHT22;4095;48.942;9.104;2023-02-15T06:22:26;3.40;99.90
8105;DHT22;4095;48.942;9.104;2023-02-15T06:24:51;3.40;99.90
8105;DHT22;4095;48.942;9.104;2023-02-15T06:27:17;3.50;99.90
8105;DHT22;4095;48.942;9.104;2023-02-15T06:29:42;3.50;99.90
8105;DHT22;4095;48.942;9.104;2023-02-15T06:32:08;3.40;99.90
8105;DHT22;4095;48.942;9.104;2023-02-15T06:34:34;3.40;99.90
8105;DHT22;4095;48.942;9.104;2023-02-15T06:36:59;3.30;99.90
8105;DHT22;4095;48.942;9.104;2023-02-15T06:39:25;3.30;99.90
8105;DHT22;4095;48.942;9.104;2023-02-15T06:41:51;3.30;99.90
8105;DHT22;4095;48.942;9.104;2023-02-15T06:44:16;3.40;99.90
8105;DHT22;4095;48.942;9.104;2023-02-15T06:46:42;3.40;99.90
8105;DHT22;4095;48.942;9.104;2023-02-15T06:49:07;3.40;99.90
8105;DHT22;4095;48.942;9.104;2023-02-15T06:51:33;3.40;99.90
8105;DHT22;4095;48.942;9.104;2023-02-15T06:53:59;3.30;99.90
8105;DHT22;4095;48.942;9.104;2023-02-15T06:56:25;3.40;99.90
8105;DHT22;4095;48.942;9.104;2023-02-15T06:58:51;3.30;99.90
8105;DHT22;4095;48.942;9.104;2023-02-15T07:01:18;3.30;99.90
8105;DHT22;4095;48.942;9.104;2023-02-15T07:03:43;3.40;99.90
8105;DHT22;4095;48.942;9.104;2023-02-15T07:06:09;3.40;99.90
8105;DHT22;4095;48.942;9.104;2023-02-15T07:08:37;3.40;99.90
8105;DHT22;4095;48.942;9.104;2023-02-15T07:11:03;3.30;99.90
8105;DHT22;4095;48.942;9.104;2023-02-15T07:13:47;3.30;99.90
8105;DHT22;4095;48.942;9.104;2023-02-15T07:16:13;3.30;99.90
8105;DHT22;4095;48.942;9.104;2023-02-15T07:18:39;3.30;99.90
8105;DHT22;4095;48.942;9.104;2023-02-15T07:21:05;3.30;99.90
8105;DHT22;4095;48.942;9.104;2023-02-15T07:23:36;3.40;99.90
8105;DHT22;4095;48.942;9.104;2023-02-15T07:26:03;3.40;99.90
8105;DHT22;4095;48.942;9.104;2023-02-15T07:28:28;3.40;99.90
8105;DHT22;4095;48.942;9.104;2023-02-15T07:30:54;3.40;99.90
8105;DHT22;4095;48.942;9.104;2023-02-15T07:33:20;3.30;99.90
8105;DHT22;4095;48.942;9.104;2023-02-15T07:35:53;3.30;99.90
8105;DHT22;4095;48.942;9.104;2023-02-15T07:38:19;3.30;99.90
8105;DHT22;4095;48.942;9.104;2023-02-15T07:40:45;3.40;99.90
8105;DHT22;4095;48.942;9.104;2023-02-15T07:43:11;3.50;99.90
8105;DHT22;4095;48.942;9.104;2023-02-15T07:45:38;3.50;99.90
8105;DHT22;4095;48.942;9.104;2023-02-15T07:48:04;3.50;99.90
8105;DHT22;4095;48.942;9.104;2023-02-15T07:50:30;3.50;99.90
8105;DHT22;4095;48.942;9.104;2023-02-15T07:52:56;3.50;99.90
8105;DHT22;4095;48.942;9.104;2023-02-15T07:55:21;3.50;99.90
8105;DHT22;4095;48.942;9.104;2023-02-15T07:57:48;3.60;99.90
8105;DHT22;4095;48.942;9.104;2023-02-15T08:00:16;3.60;99.90
8105;DHT22;4095;48.942;9.104;2023-02-15T08:02:49;3.60;99.90
8105;DHT22;4095;48.942;9.104;2023-02-15T08:05:38;3.60;99.90
8105;DHT22;4095;48.942;9.104;2023-02-15T08:08:04;3.50;99.90
8105;DHT22;4095;48.942;9.104;2023-02-15T08:10:30;3.50;99.90
8105;DHT22;4095;48.942;9.104;2023-02-15T08:13:14;3.50;99.90
8105;DHT22;4095;48.942;9.104;2023-02-15T08:15:48;3.50;99.90
8105;DHT22;4095;48.942;9.104;2023-02-15T08:18:14;3.50;99.90
8105;DHT22;4095;48.942;9.104;2023-02-15T08:20:39;3.50;99.90
8105;DHT22;4095;48.942;9.104;2023-02-15T08:23:05;3.50;99.90
8105;DHT22;4095;48.942;9.104;2023-02-15T08:25:30;3.50;99.90
8105;DHT22;4095;48.942;9.104;2023-02-15T08:27:56;3.50;99.90
8105;DHT22;4095;48.942;9.104;2023-02-15T08:30:22;3.50;99.90
8105;DHT22;4095;48.942;9.104;2023-02-15T08:32:47;3.60;99.90
8105;DHT22;4095;48.942;9.104;2023-02-15T08:35:13;3.60;99.90
8105;DHT22;4095;48.942;9.104;2023-02-15T08:37:39;3.60;99.90
8105;DHT22;4095;48.942;9.104;2023-02-15T08:40:05;3.70;99.90
8105;DHT22;4095;48.942;9.104;2023-02-15T08:42:33;3.70;99.90
8105;DHT22;4095;48.942;9.104;2023-02-15T08:44:59;3.80;99.90
8105;DHT22;4095;48.942;9.104;2023-02-15T08:47:24;3.80;99.90
8105;DHT22;4095;48.942;9.104;2023-02-15T08:49:50;3.80;99.90
8105;DHT22;4095;48.942;9.104;2023-02-15T08:52:16;3.80;99.90
8105;DHT22;4095;48.942;9.104;2023-02-15T08:54:42;3.90;99.90
8105;DHT22;4095;48.942;9.104;2023-02-15T08:57:08;3.90;99.90
8105;DHT22;4095;48.942;9.104;2023-02-15T08:59:35;4.00;99.90
8105;DHT22;4095;48.942;9.104;2023-02-15T09:02:01;4.00;99.90
8105;DHT22;4095;48.942;9.104;2023-02-15T09:04:28;4.10;99.90
8105;DHT22;4095;48.942;9.104;2023-02-15T09:06:53;4.10;99.90
8105;DHT22;4095;48.942;9.104;2023-02-15T09:09:20;4.10;99.90
8105;DHT22;4095;48.942;9.104;2023-02-15T09:11:49;4.10;99.90
8105;DHT22;4095;48.942;9.104;2023-02-15T09:14:17;4.10;99.90
8105;DHT22;4095;48.942;9.104;2023-02-15T09:16:46;4.10;99.90
8105;DHT22;4095;48.942;9.104;2023-02-15T09:19:14;4.20;99.90
8105;DHT22;4095;48.942;9.104;2023-02-15T09:21:40;4.20;99.90
8105;DHT22;4095;48.942;9.104;2023-02-15T09:24:11;4.20;99.90
8105;DHT22;4095;48.942;9.104;2023-02-15T09:26:39;4.20;99.90
8105;DHT22;4095;48.942;9.104;2023-02-15T09:29:10;4.20;99.90
8105;DHT22;4095;48.942;9.104;2023-02-15T09:31:44;4.20;99.90
8105;DHT22;4095;48.942;9.104;2023-02-15T09:34:12;4.30;99.80
8105;DHT22;4095;48.942;9.104;2023-02-15T09:36:39;4.30;99.80
8105;DHT22;4095;48.942;9.104;2023-02-15T09:39:20;4.30;99.50
8105;DHT22;4095;48.942;9.104;2023-02-15T09:49:50;4.40;99.80
8105;DHT22;4095;48.942;9.104;2023-02-15T09:52:25;4.40;99.70
8105;DHT22;4095;48.942;9.104;2023-02-15T10:00:14;4.30;99.00
8105;DHT22;4095;48.942;9.104;2023-02-15T10:11:17;4.30;99.40
8105;DHT22;4095;48.942;9.104;2023-02-15T10:25:17;4.50;99.40
8105;DHT22;4095;48.942;9.104;2023-02-15T10:27:47;4.70;99.70
8105;DHT22;4095;48.942;9.104;2023-02-15T10:30:15;4.90;99.90
8105;DHT22;4095;48.942;9.104;2023-02-15T10:33:02;4.90;99.60
8105;DHT22;4095;48.942;9.104;2023-02-15T10:41:04;5.10;99.00
8105;DHT22;4095;48.942;9.104;2023-02-15T10:55:18;5.90;98.90
8105;DHT22;4095;48.942;9.104;2023-02-15T11:01:07;6.00;98.20
8105;DHT22;4095;48.942;9.104;2023-02-15T11:06:26;6.20;97.80
8105;DHT22;4095;48.942;9.104;2023-02-15T11:09:05;6.30;97.60
8105;DHT22;4095;48.942;9.104;2023-02-15T11:11:39;6.30;97.40
8105;DHT22;4095;48.942;9.104;2023-02-15T11:14:15;6.40;97.20
8105;DHT22;4095;48.942;9.104;2023-02-15T11:16:46;6.40;96.90
8105;DHT22;4095;48.942;9.104;2023-02-15T11:19:24;6.40;97.00
8105;DHT22;4095;48.942;9.104;2023-02-15T11:21:58;6.50;97.30
8105;DHT22;4095;48.942;9.104;2023-02-15T11:24:27;6.60;97.90
8105;DHT22;4095;48.942;9.104;2023-02-15T11:29:42;6.80;97.60
8105;DHT22;4095;48.942;9.104;2023-02-15T11:32:28;6.90;97.40
8105;DHT22;4095;48.942;9.104;2023-02-15T11:37:48;7.00;97.20
8105;DHT22;4095;48.942;9.104;2023-02-15T11:40:23;6.90;96.60
8105;DHT22;4095;48.942;9.104;2023-02-15T11:42:52;6.70;96.70
8105;DHT22;4095;48.942;9.104;2023-02-15T11:45:34;7.60;97.30
8105;DHT22;4095;48.942;9.104;2023-02-15T11:48:00;8.90;95.70
8105;DHT22;4095;48.942;9.104;2023-02-15T11:50:29;9.30;94.20
8105;DHT22;4095;48.942;9.104;2023-02-15T11:53:01;9.20;93.70
8105;DHT22;4095;48.942;9.104;2023-02-15T11:55:28;9.20;93.80
8105;DHT22;4095;48.942;9.104;2023-02-15T11:58:00;9.20;94.00
8105;DHT22;4095;48.942;9.104;2023-02-15T12:00:36;10.30;93.30
8105;DHT22;4095;48.942;9.104;2023-02-15T12:03:14;12.00;92.00
8105;DHT22;4095;48.942;9.104;2023-02-15T12:05:44;13.30;89.30
8105;DHT22;4095;48.942;9.104;2023-02-15T12:08:17;14.20;87.00
8105;DHT22;4095;48.942;9.104;2023-02-15T12:10:58;15.00;84.00
8105;DHT22;4095;48.942;9.104;2023-02-15T12:13:25;15.50;82.30
8105;DHT22;4095;48.942;9.104;2023-02-15T12:15:54;15.90;80.80
8105;DHT22;4095;48.942;9.104;2023-02-15T12:20:52;15.60;80.70
8105;DHT22;4095;48.942;9.104;2023-02-15T12:23:18;15.90;79.60
8105;DHT22;4095;48.942;9.104;2023-02-15T12:25:54;16.00;79.50
8105;DHT22;4095;48.942;9.104;2023-02-15T12:28:23;16.20;78.60
8105;DHT22;4095;48.942;9.104;2023-02-15T12:30:50;16.40;78.70
8105;DHT22;4095;48.942;9.104;2023-02-15T12:36:08;16.50;78.70
8105;DHT22;4095;48.942;9.104;2023-02-15T12:38:34;16.70;77.80
8105;DHT22;4095;48.942;9.104;2023-02-15T12:41:05;16.90;77.00
8105;DHT22;4095;48.942;9.104;2023-02-15T12:43:46;17.10;77.20
8105;DHT22;4095;48.942;9.104;2023-02-15T12:46:24;17.20;76.00
8105;DHT22;4095;48.942;9.104;2023-02-15T12:51:48;17.30;76.30
8105;DHT22;4095;48.942;9.104;2023-02-15T12:57:12;17.40;75.20
8105;DHT22;4095;48.942;9.104;2023-02-15T12:59:48;17.40;75.50
8105;DHT22;4095;48.942;9.104;2023-02-15T13:02:34;17.40;75.20
8105;DHT22;4095;48.942;9.104;2023-02-15T13:05:18;17.40;75.80
8105;DHT22;4095;48.942;9.104;2023-02-15T13:07:50;17.50;75.20
8105;DHT22;4095;48.942;9.104;2023-02-15T13:10:51;17.30;75.60
8105;DHT22;4095;48.942;9.104;2023-02-15T13:13:20;17.40;76.60
8105;DHT22;4095;48.942;9.104;2023-02-15T13:15:50;17.40;75.90
8105;DHT22;4095;48.942;9.104;2023-02-15T13:20:50;17.20;77.00
8105;DHT22;4095;48.942;9.104;2023-02-15T13:23:28;16.90;77.00
8105;DHT22;4095;48.942;9.104;2023-02-15T13:25:56;16.60;78.40
8105;DHT22;4095;48.942;9.104;2023-02-15T13:28:27;16.20;79.40
8105;DHT22;4095;48.942;9.104;2023-02-15T13:30:57;15.30;80.30
8105;DHT22;4095;48.942;9.104;2023-02-15T13:33:29;14.80;82.00
8105;DHT22;4095;48.942;9.104;2023-02-15T13:36:09;14.40;82.50
8105;DHT22;4095;48.942;9.104;2023-02-15T13:38:53;14.10;84.10
8105;DHT22;4095;48.942;9.104;2023-02-15T13:41:52;13.70;84.00
8105;DHT22;4095;48.942;9.104;2023-02-15T13:44:54;13.40;85.90
8105;DHT22;4095;48.942;9.104;2023-02-15T13:55:51;12.80;88.20
8105;DHT22;4095;48.942;9.104;2023-02-15T14:14:46;13.50;89.00
8105;DHT22;4095;48.942;9.104;2023-02-15T14:19:58;13.90;88.50
8105;DHT22;4095;48.942;9.104;2023-02-15T14:22:40;14.10;87.80
8105;DHT22;4095;48.942;9.104;2023-02-15T14:25:28;14.10;86.00
8105;DHT22;4095;48.942;9.104;2023-02-15T14:28:14;14.40;86.10
8105;DHT22;4095;48.942;9.104;2023-02-15T14:30:44;14.70;85.90
8105;DHT22;4095;48.942;9.104;2023-02-15T14:35:40;15.00;84.00
8105;DHT22;4095;48.942;9.104;2023-02-15T14:40:53;15.30;84.00
8105;DHT22;4095;48.942;9.104;2023-02-15T14:49:26;15.40;82.20
8105;DHT22;4095;48.942;9.104;2023-02-15T14:51:56;15.40;82.20
8105;DHT22;4095;48.942;9.104;2023-02-15T14:59:38;15.20;81.70
8105;DHT22;4095;48.942;9.104;2023-02-15T15:04:34;14.70;82.80
8105;DHT22;4095;48.942;9.104;2023-02-15T15:09:30;14.50;84.30
8105;DHT22;4095;48.942;9.104;2023-02-15T15:14:43;14.20;85.80
8105;DHT22;4095;48.942;9.104;2023-02-15T15:19:58;13.80;86.90
8105;DHT22;4095;48.942;9.104;2023-02-15T15:22:28;13.60;87.40
8105;DHT22;4095;48.942;9.104;2023-02-15T15:25:09;13.40;87.30
8105;DHT22;4095;48.942;9.104;2023-02-15T15:27:40;13.20;88.00
8105;DHT22;4095;48.942;9.104;2023-02-15T15:49:30;11.70;91.30
8105;DHT22;4095;48.942;9.104;2023-02-15T15:52:11;11.60;91.20
8105;DHT22;4095;48.942;9.104;2023-02-15T15:54:38;11.50;91.70
8105;DHT22;4095;48.942;9.104;2023-02-15T15:57:05;11.30;91.70
8105;DHT22;4095;48.942;9.104;2023-02-15T15:59:36;11.20;92.00
8105;DHT22;4095;48.942;9.104;2023-02-15T16:02:13;11.00;92.00
8105;DHT22;4095;48.942;9.104;2023-02-15T16:04:40;10.90;92.40
8105;DHT22;4095;48.942;9.104;2023-02-15T16:10:02;10.70;92.70
8105;DHT22;4095;48.942;9.104;2023-02-15T16:12:30;10.50;92.70
8105;DHT22;4095;48.942;9.104;2023-02-15T16:14:57;10.40;92.90
8105;DHT22;4095;48.942;9.104;2023-02-15T16:17:28;10.30;93.10
8105;DHT22;4095;48.942;9.104;2023-02-15T16:20:57;10.20;93.30
8105;DHT22;4095;48.942;9.104;2023-02-15T16:28:20;9.90;94.00
8105;DHT22;4095;48.942;9.104;2023-02-15T16:31:04;9.80;94.00
8105;DHT22;4095;48.942;9.104;2023-02-15T16:33:38;9.70;94.30
8105;DHT22;4095;48.942;9.104;2023-02-15T16:36:04;9.60;94.20
8105;DHT22;4095;48.942;9.104;2023-02-15T16:41:28;9.40;94.40
8105;DHT22;4095;48.942;9.104;2023-02-15T16:43:57;9.30;94.90
8105;DHT22;4095;48.942;9.104;2023-02-15T16:46:39;9.20;94.60
8105;DHT22;4095;48.942;9.104;2023-02-15T16:49:41;9.10;94.90
8105;DHT22;4095;48.942;9.104;2023-02-15T16:52:03;9.00;94.60
8105;DHT22;4095;48.942;9.104;2023-02-15T16:54:31;8.80;94.90
8105;DHT22;4095;48.942;9.104;2023-02-15T16:56:58;8.80;94.80
8105;DHT22;4095;48.942;9.104;2023-02-15T16:59:41;8.60;94.90
8105;DHT22;4095;48.942;9.104;2023-02-15T17:02:29;8.40;94.90
8105;DHT22;4095;48.942;9.104;2023-02-15T17:07:32;8.10;95.40
8105;DHT22;4095;48.942;9.104;2023-02-15T17:09:59;8.00;95.40
8105;DHT22;4095;48.942;9.104;2023-02-15T17:12:54;7.90;95.30
8105;DHT22;4095;48.942;9.104;2023-02-15T17:17:51;7.50;95.60
8105;DHT22;4095;48.942;9.104;2023-02-15T17:20:18;7.50;95.90
8105;DHT22;4095;48.942;9.104;2023-02-15T17:22:45;7.30;95.60
8105;DHT22;4095;48.942;9.104;2023-02-15T17:25:19;7.20;96.10
8105;DHT22;4095;48.942;9.104;2023-02-15T17:27:51;7.20;96.20
8105;DHT22;4095;48.942;9.104;2023-02-15T17:30:26;7.20;96.10
8105;DHT22;4095;48.942;9.104;2023-02-15T17:33:01;7.10;96.40
8105;DHT22;4095;48.942;9.104;2023-02-15T17:35:36;7.10;96.40
8105;DHT22;4095;48.942;9.104;2023-02-15T17:38:17;7.10;96.40
8105;DHT22;4095;48.942;9.104;2023-02-15T17:40:43;7.00;96.20
8105;DHT22;4095;48.942;9.104;2023-02-15T17:43:08;7.00;96.00
8105;DHT22;4095;48.942;9.104;2023-02-15T17:45:38;6.90;96.30
8105;DHT22;4095;48.942;9.104;2023-02-15T17:48:06;6.80;96.10
8105;DHT22;4095;48.942;9.104;2023-02-15T17:50:32;6.70;96.10
8105;DHT22;4095;48.942;9.104;2023-02-15T17:52:58;6.60;96.50
8105;DHT22;4095;48.942;9.104;2023-02-15T17:55:26;6.60;96.50
8105;DHT22;4095;48.942;9.104;2023-02-15T17:58:11;6.50;96.10
8105;DHT22;4095;48.942;9.104;2023-02-15T18:00:43;6.40;96.50
8105;DHT22;4095;48.942;9.104;2023-02-15T18:03:45;6.30;96.70
8105;DHT22;4095;48.942;9.104;2023-02-15T18:06:30;6.20;96.50
8105;DHT22;4095;48.942;9.104;2023-02-15T18:09:17;6.20;96.70
8105;DHT22;4095;48.942;9.104;2023-02-15T18:12:19;6.20;97.00
8105;DHT22;4095;48.942;9.104;2023-02-15T18:14:45;6.20;96.60
8105;DHT22;4095;48.942;9.104;2023-02-15T18:17:13;6.20;96.60
8105;DHT22;4095;48.942;9.104;2023-02-15T18:19:40;6.10;96.30
8105;DHT22;4095;48.942;9.104;2023-02-15T18:22:15;6.10;96.40
8105;DHT22;4095;48.942;9.104;2023-02-15T18:24:43;6.10;96.40
8105;DHT22;4095;48.942;9.104;2023-02-15T18:27:11;6.00;96.20
8105;DHT22;4095;48.942;9.104;2023-02-15T18:29:37;6.00;96.30
8105;DHT22;4095;48.942;9.104;2023-02-15T18:32:05;5.90;96.20
8105;DHT22;4095;48.942;9.104;2023-02-15T18:34:35;5.90;96.10
8105;DHT22;4095;48.942;9.104;2023-02-15T18:37:03;5.80;96.40
8105;DHT22;4095;48.942;9.104;2023-02-15T18:39:37;5.90;96.80
8105;DHT22;4095;48.942;9.104;2023-02-15T18:42:05;5.90;96.80
8105;DHT22;4095;48.942;9.104;2023-02-15T18:44:31;5.80;96.60
8105;DHT22;4095;48.942;9.104;2023-02-15T18:46:57;5.70;96.50
8105;DHT22;4095;48.942;9.104;2023-02-15T18:49:22;5.70;96.80
8105;DHT22;4095;48.942;9.104;2023-02-15T18:51:48;5.60;96.50
8105;DHT22;4095;48.942;9.104;2023-02-15T18:54:24;5.50;96.60
8105;DHT22;4095;48.942;9.104;2023-02-15T18:57:00;5.50;96.70
8105;DHT22;4095;48.942;9.104;2023-02-15T18:59:27;5.50;96.60
8105;DHT22;4095;48.942;9.104;2023-02-15T19:01:53;5.50;97.00
8105;DHT22;4095;48.942;9.104;2023-02-15T19:04:20;5.60;96.80
8105;DHT22;4095;48.942;9.104;2023-02-15T19:06:47;5.40;96.40
8105;DHT22;4095;48.942;9.104;2023-02-15T19:09:16;5.40;96.70
8105;DHT22;4095;48.942;9.104;2023-02-15T19:11:51;5.30;96.60
8105;DHT22;4095;48.942;9.104;2023-02-15T19:14:26;5.30;96.50
8105;DHT22;4095;48.942;9.104;2023-02-15T19:16:53;5.30;96.50
8105;DHT22;4095;48.942;9.104;2023-02-15T19:19:19;5.20;96.40
8105;DHT22;4095;48.942;9.104;2023-02-15T19:21:45;5.20;96.40
8105;DHT22;4095;48.942;9.104;2023-02-15T19:24:32;5.20;96.70
8105;DHT22;4095;48.942;9.104;2023-02-15T19:27:02;5.20;96.70
8105;DHT22;4095;48.942;9.104;2023-02-15T19:29:29;5.20;96.50
8105;DHT22;4095;48.942;9.104;2023-02-15T19:31:55;5.20;96.60
8105;DHT22;4095;48.942;9.104;2023-02-15T19:34:21;5.20;96.60
8105;DHT22;4095;48.942;9.104;2023-02-15T19:36:48;5.10;96.40
8105;DHT22;4095;48.942;9.104;2023-02-15T19:39:26;5.10;96.30
8105;DHT22;4095;48.942;9.104;2023-02-15T19:41:52;4.90;96.50
8105;DHT22;4095;48.942;9.104;2023-02-15T19:44:18;5.00;97.00
8105;DHT22;4095;48.942;9.104;2023-02-15T19:46:45;5.00;97.00